Time;durP1;ratioP1;P1;durP2;ratioP2;P2;SDS_P1;SDS_P2;PMS_P1;PMS_P2;Temp;Humidity;BMP_temperature;BMP_pressure;BME280_temperature;BME280_humidity;BME280_pressure;Samples;Min_cycle;Max_cycle;Signal;HPM_P1;HPM_P2
2022/05/09 00:02:13;;;;;;;11.75;4.15;;;;;;;;;;5013779;28;20126;-65
2022/05/09 00:04:39;;;;;;;18.33;3.90;;;;;;;;;;5013949;28;20050;-65
2022/05/09 00:07:05;;;;;;;15.98;4.38;;;;;;;;;;5012922;28;20054;-65
2022/05/09 00:09:32;;;;;;;19.42;4.18;;;;;;;;;;5013544;28;20042;-65
2022/05/09 00:11:58;;;;;;;14.40;4.10;;;;;;;;;;5014052;28;20235;-65
2022/05/09 00:14:24;;;;;;;14.95;4.07;;;;;;;;;;5012876;28;20073;-65
2022/05/09 00:16:53;;;;;;;17.67;4.18;;;;;;;;;;5013714;28;20072;-65
2022/05/09 00:19:20;;;;;;;13.30;4.47;;;;;;;;;;5013767;28;20048;-66
2022/05/09 00:21:47;;;;;;;23.17;4.93;;;;;;;;;;5012777;28;20038;-65
2022/05/09 00:24:14;;;;;;;12.82;4.07;;;;;;;;;;5013633;28;20542;-65
2022/05/09 00:26:41;;;;;;;11.98;3.47;;;;;;;;;;5013346;28;20042;-65
2022/05/09 00:29:09;;;;;;;17.95;4.15;;;;;;;;;;5011585;28;20056;-65
2022/05/09 00:31:35;;;;;;;14.68;4.18;;;;;;;;;;5013324;28;20393;-65
2022/05/09 00:34:01;;;;;;;19.10;4.60;;;;;;;;;;5013423;28;20053;-65
2022/05/09 00:36:27;;;;;;;15.32;4.40;;;;;;;;;;5012662;28;20042;-65
2022/05/09 00:38:54;;;;;;;21.40;4.03;;;;;;;;;;5011619;28;20485;-65
2022/05/09 00:41:31;;;;;;;18.45;4.30;;;;;;;;;;5013234;28;20448;-65
2022/05/09 00:43:58;;;;;;;12.70;4.20;;;;;;;;;;5012570;28;20335;-65
2022/05/09 00:46:24;;;;;;;10.35;3.40;;;;;;;;;;5013105;28;20034;-65
2022/05/09 00:48:50;;;;;;;12.23;3.80;;;;;;;;;;5013026;28;20096;-65
2022/05/09 00:51:24;;;;;;;17.05;4.53;;;;;;;;;;5010834;28;20088;-65
2022/05/09 00:53:50;;;;;;;11.98;3.95;;;;;;;;;;5013113;28;20111;-65
2022/05/09 00:56:20;;;;;;;13.23;3.90;;;;;;;;;;5013055;28;20049;-65
2022/05/09 00:58:50;;;;;;;14.98;4.22;;;;;;;;;;5012470;28;20038;-65
2022/05/09 01:01:17;;;;;;;16.45;4.72;;;;;;;;;;5013345;28;20108;-65
2022/05/09 01:03:46;;;;;;;12.20;3.90;;;;;;;;;;5012805;28;20052;-65
2022/05/09 01:06:12;;;;;;;20.55;4.75;;;;;;;;;;5011987;28;20559;-65
2022/05/09 01:08:38;;;;;;;18.23;4.47;;;;;;;;;;5011352;28;20616;-65
2022/05/09 01:11:09;;;;;;;18.02;4.68;;;;;;;;;;5012538;28;20444;-65
2022/05/09 01:13:36;;;;;;;9.80;4.40;;;;;;;;;;5011914;28;20120;-65
2022/05/09 01:16:04;;;;;;;12.65;4.05;;;;;;;;;;5012435;28;20124;-65
2022/05/09 01:18:30;;;;;;;15.35;3.75;;;;;;;;;;5012166;28;20042;-65
2022/05/09 01:20:56;;;;;;;18.40;4.25;;;;;;;;;;5011827;28;20481;-65
2022/05/09 01:23:22;;;;;;;13.25;4.00;;;;;;;;;;5012412;28;20073;-65
2022/05/09 01:25:48;;;;;;;13.48;4.15;;;;;;;;;;5012270;28;20033;-65
2022/05/09 01:28:14;;;;;;;11.07;3.60;;;;;;;;;;5011496;28;20125;-65
2022/05/09 01:30:56;;;;;;;9.05;4.13;;;;;;;;;;5012314;28;20076;-65
2022/05/09 01:33:28;;;;;;;18.40;4.75;;;;;;;;;;5012226;28;20439;-65
2022/05/09 01:36:13;;;;;;;14.70;4.50;;;;;;;;;;5011702;28;20057;-65
2022/05/09 01:38:44;;;;;;;13.20;4.05;;;;;;;;;;5011914;28;20042;-65
2022/05/09 01:41:10;;;;;;;11.98;3.97;;;;;;;;;;5011924;28;20041;-65
2022/05/09 01:43:41;;;;;;;17.23;4.45;;;;;;;;;;5011338;28;20045;-65
2022/05/09 01:46:08;;;;;;;14.68;4.47;;;;;;;;;;5012050;28;20472;-65
2022/05/09 01:51:20;;;;;;;16.95;4.18;;;;;;;;;;5011138;28;20121;-65
2022/05/09 01:53:50;;;;;;;17.48;5.00;;;;;;;;;;5012123;28;20519;-65
2022/05/09 01:56:17;;;;;;;12.85;3.53;;;;;;;;;;5026431;28;20049;-65
2022/05/09 01:58:43;;;;;;;7.80;4.28;;;;;;;;;;5010842;28;20046;-65
2022/05/09 02:01:09;;;;;;;11.63;4.03;;;;;;;;;;5011781;28;20108;-65
2022/05/09 02:03:35;;;;;;;17.02;4.07;;;;;;;;;;5011673;28;20041;-65
2022/05/09 02:06:01;;;;;;;17.33;4.47;;;;;;;;;;5009400;28;20081;-65
2022/05/09 02:08:28;;;;;;;16.90;4.25;;;;;;;;;;5011177;28;20080;-65
2022/05/09 02:10:54;;;;;;;12.48;4.38;;;;;;;;;;5011615;28;20041;-65
2022/05/09 02:13:20;;;;;;;15.85;4.57;;;;;;;;;;5010560;28;20048;-65
2022/05/09 02:15:46;;;;;;;15.20;4.47;;;;;;;;;;5011163;28;20077;-65
2022/05/09 02:18:12;;;;;;;17.55;4.60;;;;;;;;;;5010843;28;20100;-65
2022/05/09 02:20:38;;;;;;;17.38;4.57;;;;;;;;;;5010352;28;20036;-65
2022/05/09 02:23:04;;;;;;;16.70;5.15;;;;;;;;;;5011323;28;20038;-65
2022/05/09 02:25:30;;;;;;;13.73;4.50;;;;;;;;;;5011372;28;20435;-65
2022/05/09 02:28:00;;;;;;;14.00;4.40;;;;;;;;;;5010495;28;20049;-65
2022/05/09 02:30:26;;;;;;;13.82;4.72;;;;;;;;;;5009932;28;20045;-65
2022/05/09 02:32:52;;;;;;;18.85;4.65;;;;;;;;;;5009533;28;20178;-65
2022/05/09 02:35:20;;;;;;;11.68;4.28;;;;;;;;;;5010156;28;20042;-65
2022/05/09 02:37:46;;;;;;;10.73;4.57;;;;;;;;;;5009445;28;20498;-65
2022/05/09 02:40:12;;;;;;;16.23;4.85;;;;;;;;;;5010911;28;20041;-65
2022/05/09 02:42:38;;;;;;;15.00;4.95;;;;;;;;;;5010576;28;20413;-65
2022/05/09 02:45:06;;;;;;;12.73;4.30;;;;;;;;;;5011004;28;20041;-66
2022/05/09 02:47:32;;;;;;;17.73;4.88;;;;;;;;;;5010583;28;20056;-66
2022/05/09 02:49:58;;;;;;;12.77;4.38;;;;;;;;;;5010126;28;20511;-66
2022/05/09 02:52:24;;;;;;;11.05;4.38;;;;;;;;;;5010726;28;20038;-66
2022/05/09 02:54:51;;;;;;;10.95;4.35;;;;;;;;;;5010771;28;20075;-66
2022/05/09 02:57:17;;;;;;;13.85;4.18;;;;;;;;;;5010233;28;20104;-66
2022/05/09 02:59:44;;;;;;;15.88;4.82;;;;;;;;;;5010645;28;20033;-66
2022/05/09 03:02:10;;;;;;;17.58;4.75;;;;;;;;;;5010693;28;20133;-66
2022/05/09 03:04:39;;;;;;;14.57;4.88;;;;;;;;;;5009963;28;20113;-66
2022/05/09 03:07:15;;;;;;;17.67;4.75;;;;;;;;;;5008867;28;20054;-66
2022/05/09 03:09:42;;;;;;;11.63;4.75;;;;;;;;;;5010368;28;20393;-66
2022/05/09 03:12:09;;;;;;;13.82;4.40;;;;;;;;;;5009812;28;20038;-66
2022/05/09 03:14:35;;;;;;;11.25;3.72;;;;;;;;;;5010559;28;20122;-66
2022/05/09 03:17:01;;;;;;;14.30;4.22;;;;;;;;;;5010398;28;20045;-66
2022/05/09 03:19:27;;;;;;;19.20;4.45;;;;;;;;;;5009792;28;20030;-65
2022/05/09 03:21:54;;;;;;;13.20;4.47;;;;;;;;;;5010551;28;20068;-65
2022/05/09 03:24:20;;;;;;;14.05;4.60;;;;;;;;;;5010481;28;20125;-65
2022/05/09 03:26:46;;;;;;;15.25;4.25;;;;;;;;;;5009775;28;20064;-65
2022/05/09 03:29:13;;;;;;;10.38;4.65;;;;;;;;;;5010191;28;20433;-65
2022/05/09 03:31:39;;;;;;;16.25;4.75;;;;;;;;;;5011497;28;20504;-65
2022/05/09 03:34:05;;;;;;;16.92;4.60;;;;;;;;;;5013815;28;20073;-65
2022/05/09 03:36:31;;;;;;;13.18;4.38;;;;;;;;;;5014399;28;20050;-65
2022/05/09 03:38:58;;;;;;;15.20;4.05;;;;;;;;;;5014351;28;20052;-65
2022/05/09 03:41:24;;;;;;;14.25;4.38;;;;;;;;;;5013544;28;20041;-65
2022/05/09 03:43:50;;;;;;;20.38;4.78;;;;;;;;;;5014516;28;20388;-65
2022/05/09 03:46:16;;;;;;;17.40;4.47;;;;;;;;;;5014224;28;20073;-65
2022/05/09 03:48:43;;;;;;;16.08;4.38;;;;;;;;;;5013145;28;20107;-65
2022/05/09 03:51:09;;;;;;;15.20;4.78;;;;;;;;;;5013090;28;20519;-65
2022/05/09 03:53:35;;;;;;;18.33;4.28;;;;;;;;;;5014126;28;20073;-65
2022/05/09 03:56:01;;;;;;;17.05;5.10;;;;;;;;;;5013489;28;20049;-65
2022/05/09 03:58:27;;;;;;;15.65;5.07;;;;;;;;;;5013853;28;20382;-65
2022/05/09 04:00:54;;;;;;;14.27;4.55;;;;;;;;;;5014088;28;20034;-65
2022/05/09 04:03:20;;;;;;;13.40;5.57;;;;;;;;;;5013353;28;20042;-65
2022/05/09 04:05:46;;;;;;;14.13;4.63;;;;;;;;;;5014020;28;20164;-65
2022/05/09 04:08:16;;;;;;;18.48;5.00;;;;;;;;;;5013479;28;20053;-65
2022/05/09 04:10:42;;;;;;;16.58;5.00;;;;;;;;;;5012997;28;20085;-65
2022/05/09 04:13:08;;;;;;;16.88;5.07;;;;;;;;;;5013770;28;20052;-65
2022/05/09 04:18:21;;;;;;;16.58;4.60;;;;;;;;;;5012941;28;20052;-65
2022/05/09 04:20:47;;;;;;;12.68;4.53;;;;;;;;;;5013654;28;20045;-65
2022/05/09 04:23:13;;;;;;;15.85;5.30;;;;;;;;;;5013576;28;20042;-65
2022/05/09 04:25:39;;;;;;;13.05;5.07;;;;;;;;;;5013001;28;20038;-65
2022/05/09 04:28:07;;;;;;;12.15;4.88;;;;;;;;;;5013048;28;20046;-65
2022/05/09 04:30:35;;;;;;;20.85;6.00;;;;;;;;;;5013159;28;20042;-65
2022/05/09 04:33:01;;;;;;;18.05;5.25;;;;;;;;;;5012751;28;20411;-65
2022/05/09 04:35:28;;;;;;;13.57;5.35;;;;;;;;;;5013294;28;20042;-65
2022/05/09 04:37:55;;;;;;;10.57;4.88;;;;;;;;;;5012913;28;20485;-65
2022/05/09 04:40:22;;;;;;;15.43;4.82;;;;;;;;;;5027476;28;20067;-65
2022/05/09 04:42:48;;;;;;;20.45;6.28;;;;;;;;;;5012617;28;20116;-65
2022/05/09 04:45:15;;;;;;;17.17;5.63;;;;;;;;;;5013160;28;20529;-65
2022/05/09 04:47:42;;;;;;;12.32;5.35;;;;;;;;;;5012276;28;20053;-65
2022/05/09 04:50:10;;;;;;;14.98;5.35;;;;;;;;;;5013348;28;20038;-65
2022/05/09 04:52:36;;;;;;;15.05;6.25;;;;;;;;;;5012694;28;20100;-65
2022/05/09 04:55:02;;;;;;;19.25;5.70;;;;;;;;;;5011974;28;20056;-65
2022/05/09 04:57:28;;;;;;;19.27;5.50;;;;;;;;;;5012702;28;20057;-65
2022/05/09 04:59:54;;;;;;;14.07;5.68;;;;;;;;;;5012825;28;20034;-65
2022/05/09 05:02:20;;;;;;;15.57;5.60;;;;;;;;;;5012119;28;20046;-65
2022/05/09 05:04:46;;;;;;;16.40;5.47;;;;;;;;;;5012440;28;20040;-65
2022/05/09 05:07:12;;;;;;;17.90;5.80;;;;;;;;;;5012219;28;20057;-66
2022/05/09 05:09:38;;;;;;;17.38;5.68;;;;;;;;;;5011858;28;20136;-65
2022/05/09 05:12:04;;;;;;;15.00;5.55;;;;;;;;;;5012564;28;20073;-65
2022/05/09 05:14:30;;;;;;;17.15;6.20;;;;;;;;;;5010727;28;20463;-65
2022/05/09 05:16:59;;;;;;;18.95;6.15;;;;;;;;;;5011826;28;20096;-65
2022/05/09 05:19:25;;;;;;;17.38;5.70;;;;;;;;;;5012363;28;20113;-65
2022/05/09 05:21:51;;;;;;;19.48;6.50;;;;;;;;;;5011165;28;20132;-65
2022/05/09 05:24:17;;;;;;;18.58;5.75;;;;;;;;;;5011941;28;20129;-65
2022/05/09 05:26:43;;;;;;;19.70;6.72;;;;;;;;;;5012069;28;20034;-65
2022/05/09 05:29:09;;;;;;;13.57;5.68;;;;;;;;;;5011971;28;20433;-65
2022/05/09 05:31:35;;;;;;;17.27;5.68;;;;;;;;;;5011527;28;20073;-65
2022/05/09 05:34:01;;;;;;;14.52;5.97;;;;;;;;;;5012244;28;20480;-65
2022/05/09 05:36:27;;;;;;;19.65;6.20;;;;;;;;;;5011930;28;20038;-65
2022/05/09 05:38:53;;;;;;;19.65;6.32;;;;;;;;;;5011992;28;20400;-65
2022/05/09 05:41:19;;;;;;;21.67;6.25;;;;;;;;;;5011253;28;20053;-65
2022/05/09 05:43:46;;;;;;;16.50;6.25;;;;;;;;;;5012147;28;20468;-65
2022/05/09 05:46:12;;;;;;;20.25;6.13;;;;;;;;;;5011644;28;20034;-65
2022/05/09 05:48:38;;;;;;;15.18;6.40;;;;;;;;;;5010884;28;20050;-65
2022/05/09 05:51:04;;;;;;;20.70;6.28;;;;;;;;;;5011652;28;20037;-65
2022/05/09 05:53:30;;;;;;;24.90;6.78;;;;;;;;;;5011743;28;20049;-65
2022/05/09 05:55:56;;;;;;;15.05;5.78;;;;;;;;;;5010539;28;20384;-65
2022/05/09 05:58:27;;;;;;;18.98;6.10;;;;;;;;;;5011679;28;20041;-65
2022/05/09 06:00:53;;;;;;;14.48;5.78;;;;;;;;;;5011829;28;20046;-65
2022/05/09 06:03:20;;;;;;;18.10;6.45;;;;;;;;;;5011179;28;20073;-65
2022/05/09 06:05:46;;;;;;;16.95;6.70;;;;;;;;;;5009658;28;20065;-65
2022/05/09 06:08:12;;;;;;;18.85;5.80;;;;;;;;;;5011385;28;20099;-65
2022/05/09 06:10:38;;;;;;;22.50;6.47;;;;;;;;;;5010674;28;20473;-65
2022/05/09 06:13:05;;;;;;;15.05;6.47;;;;;;;;;;5010316;28;20046;-66
2022/05/09 06:15:32;;;;;;;42.55;17.40;;;;;;;;;;5010676;28;20076;-66
2022/05/09 06:18:02;;;;;;;26.10;8.77;;;;;;;;;;5010241;28;20049;-66
2022/05/09 06:20:31;;;;;;;26.45;9.73;;;;;;;;;;5009652;28;20038;-66
2022/05/09 06:22:59;;;;;;;19.33;6.25;;;;;;;;;;4993376;28;20579;-63
2022/05/09 06:25:25;;;;;;;17.50;6.45;;;;;;;;;;5010316;28;20084;-64
2022/05/09 06:27:51;;;;;;;20.95;6.20;;;;;;;;;;5011123;28;20100;-65
2022/05/09 06:30:18;;;;;;;17.10;6.35;;;;;;;;;;5011058;28;20077;-64
2022/05/09 06:32:44;;;;;;;24.00;6.68;;;;;;;;;;5010571;28;20045;-62
2022/05/09 06:35:12;;;;;;;17.05;6.03;;;;;;;;;;5011792;28;20037;-65
2022/05/09 06:37:39;;;;;;;17.30;6.32;;;;;;;;;;5009984;28;20631;-64
2022/05/09 06:40:05;;;;;;;16.13;6.30;;;;;;;;;;5010784;28;20041;-64
2022/05/09 06:42:31;;;;;;;16.95;5.50;;;;;;;;;;5011841;28;20096;-65
2022/05/09 06:44:57;;;;;;;20.48;6.95;;;;;;;;;;5005738;28;20089;-64
2022/05/09 06:47:24;;;;;;;17.73;6.18;;;;;;;;;;5007256;28;20041;-64
2022/05/09 06:49:50;;;;;;;16.48;6.45;;;;;;;;;;5005860;28;20447;-62
2022/05/09 06:52:16;;;;;;;21.30;6.60;;;;;;;;;;5010334;28;20030;-62
2022/05/09 06:54:42;;;;;;;22.38;6.63;;;;;;;;;;5010451;28;20088;-62
2022/05/09 06:57:08;;;;;;;17.25;6.63;;;;;;;;;;5011537;28;20452;-65
2022/05/09 06:59:34;;;;;;;15.30;6.15;;;;;;;;;;5010096;28;20539;-64
2022/05/09 07:02:01;;;;;;;19.15;6.22;;;;;;;;;;5009160;28;20045;-64
2022/05/09 07:04:27;;;;;;;16.73;6.53;;;;;;;;;;5010459;28;20119;-65
2022/05/09 07:06:53;;;;;;;20.42;6.40;;;;;;;;;;5010515;28;20061;-65
2022/05/09 07:09:19;;;;;;;18.98;5.85;;;;;;;;;;5010787;28;20156;-64
2022/05/09 07:11:45;;;;;;;20.05;6.15;;;;;;;;;;5009756;28;20069;-65
2022/05/09 07:14:11;;;;;;;15.13;5.70;;;;;;;;;;5011063;28;20073;-63
2022/05/09 07:16:38;;;;;;;18.27;5.95;;;;;;;;;;5008214;28;20096;-64
2022/05/09 07:19:04;;;;;;;22.08;5.95;;;;;;;;;;5009679;28;20046;-63
2022/05/09 07:21:30;;;;;;;14.30;5.00;;;;;;;;;;5010629;28;20038;-66
2022/05/09 07:23:56;;;;;;;18.45;5.35;;;;;;;;;;5007966;28;20427;-64
2022/05/09 07:26:22;;;;;;;18.98;6.70;;;;;;;;;;5010019;28;20137;-65
2022/05/09 07:28:48;;;;;;;14.70;5.70;;;;;;;;;;5010725;28;20069;-65
2022/05/09 07:31:14;;;;;;;16.15;5.45;;;;;;;;;;5007652;28;20476;-65
2022/05/09 07:33:40;;;;;;;14.88;5.60;;;;;;;;;;5006003;28;20048;-64
2022/05/09 07:36:07;;;;;;;15.73;5.50;;;;;;;;;;5006600;28;20041;-63
2022/05/09 07:38:33;;;;;;;13.55;4.93;;;;;;;;;;5009243;28;20041;-64
2022/05/09 07:40:59;;;;;;;16.85;5.40;;;;;;;;;;5011276;28;20034;-64
2022/05/09 07:43:27;;;;;;;15.45;5.10;;;;;;;;;;5009238;28;20040;-64
2022/05/09 07:45:54;;;;;;;19.27;5.80;;;;;;;;;;5009980;28;20034;-63
2022/05/09 07:48:20;;;;;;;13.32;5.18;;;;;;;;;;5010704;28;20057;-63
2022/05/09 07:50:47;;;;;;;14.13;5.18;;;;;;;;;;5000682;28;20124;-64
2022/05/09 07:53:14;;;;;;;17.33;5.07;;;;;;;;;;5007811;28;20074;-63
2022/05/09 07:55:42;;;;;;;13.85;4.93;;;;;;;;;;5008747;28;20042;-64
2022/05/09 07:58:09;;;;;;;16.58;4.97;;;;;;;;;;5008893;28;20046;-65
2022/05/09 08:00:36;;;;;;;15.60;4.97;;;;;;;;;;5008930;28;20535;-64
2022/05/09 08:03:02;;;;;;;15.30;4.93;;;;;;;;;;5007970;28;20412;-66
2022/05/09 08:05:28;;;;;;;23.20;5.18;;;;;;;;;;5004380;28;20428;-63
2022/05/09 08:07:54;;;;;;;15.02;5.78;;;;;;;;;;4997827;28;20069;-62
2022/05/09 08:10:21;;;;;;;14.65;4.72;;;;;;;;;;5008441;28;20208;-62
2022/05/09 08:12:48;;;;;;;24.73;5.70;;;;;;;;;;5007792;28;20515;-61
2022/05/09 08:15:16;;;;;;;13.02;4.38;;;;;;;;;;5003817;28;20044;-60
2022/05/09 08:17:44;;;;;;;12.55;3.92;;;;;;;;;;5008501;28;20042;-61
2022/05/09 08:20:12;;;;;;;11.75;4.60;;;;;;;;;;5014135;28;20041;-62
2022/05/09 08:22:38;;;;;;;12.70;4.30;;;;;;;;;;5010413;28;20103;-60
2022/05/09 08:25:05;;;;;;;10.80;4.10;;;;;;;;;;5011974;28;20504;-64
2022/05/09 08:27:32;;;;;;;14.68;4.32;;;;;;;;;;5012225;28;20046;-62
2022/05/09 08:29:58;;;;;;;9.32;3.90;;;;;;;;;;5013223;28;20045;-60
2022/05/09 08:32:27;;;;;;;18.75;4.47;;;;;;;;;;5013586;28;20042;-62
2022/05/09 08:34:54;;;;;;;11.40;3.70;;;;;;;;;;5012517;28;20420;-61
2022/05/09 08:37:20;;;;;;;14.73;3.80;;;;;;;;;;5008454;28;20116;-61
2022/05/09 08:39:47;;;;;;;15.82;4.15;;;;;;;;;;5011584;28;20030;-62
2022/05/09 08:42:18;;;;;;;15.35;3.95;;;;;;;;;;5009656;28;20042;-62
2022/05/09 08:44:47;;;;;;;10.75;3.15;;;;;;;;;;5010924;28;20061;-61
2022/05/09 08:47:13;;;;;;;14.60;3.97;;;;;;;;;;5009506;28;20038;-62
2022/05/09 08:49:39;;;;;;;12.20;4.07;;;;;;;;;;5009319;28;20042;-62
2022/05/09 08:52:24;;;;;;;13.98;3.67;;;;;;;;;;5010851;28;20120;-63
2022/05/09 08:54:50;;;;;;;14.00;3.30;;;;;;;;;;5002062;28;20033;-61
2022/05/09 08:57:18;;;;;;;11.20;3.15;;;;;;;;;;5009808;28;20061;-62
2022/05/09 08:59:50;;;;;;;13.18;3.92;;;;;;;;;;5010603;28;20049;-63
2022/05/09 09:02:30;;;;;;;13.02;3.40;;;;;;;;;;5011326;28;20121;-62
2022/05/09 09:04:58;;;;;;;12.30;3.10;;;;;;;;;;5013490;28;20073;-61
2022/05/09 09:07:41;;;;;;;15.02;3.65;;;;;;;;;;5010474;28;20061;-60
2022/05/09 09:10:11;;;;;;;10.45;3.10;;;;;;;;;;5011102;28;20096;-63
2022/05/09 09:12:43;;;;;;;9.32;2.47;;;;;;;;;;5010344;28;20038;-64
2022/05/09 09:15:22;;;;;;;9.65;2.45;;;;;;;;;;5007570;28;20048;-62
2022/05/09 09:18:27;;;;;;;7.68;2.60;;;;;;;;;;5012199;28;20125;-61
2022/05/09 09:21:05;;;;;;;13.02;2.90;;;;;;;;;;4931539;29;20119;-63
2022/05/09 09:23:40;;;;;;;11.82;2.78;;;;;;;;;;4932044;29;20039;-63
2022/05/09 09:26:26;;;;;;;10.60;3.67;;;;;;;;;;4979765;28;20037;-63
2022/05/09 09:29:00;;;;;;;17.15;3.63;;;;;;;;;;5008514;28;20168;-63
2022/05/09 09:31:31;;;;;;;12.02;3.10;;;;;;;;;;5012624;28;20049;-62
2022/05/09 09:34:03;;;;;;;12.20;2.97;;;;;;;;;;5012407;28;20131;-63
2022/05/09 09:36:42;;;;;;;8.40;2.83;;;;;;;;;;5011318;28;20146;-62
2022/05/09 09:39:14;;;;;;;12.27;2.92;;;;;;;;;;5011029;28;20061;-62
2022/05/09 09:41:40;;;;;;;9.77;3.05;;;;;;;;;;5011044;28;20093;-64
2022/05/09 09:44:18;;;;;;;14.52;3.20;;;;;;;;;;5010536;28;20116;-62
2022/05/09 09:47:03;;;;;;;10.95;3.00;;;;;;;;;;5011789;28;20129;-62
2022/05/09 09:49:29;;;;;;;11.95;2.72;;;;;;;;;;5012275;28;20042;-63
2022/05/09 09:51:57;;;;;;;9.65;2.45;;;;;;;;;;5009422;28;20129;-61
2022/05/09 09:54:26;;;;;;;9.77;2.50;;;;;;;;;;5011601;28;20073;-60
2022/05/09 09:56:53;;;;;;;7.18;2.08;;;;;;;;;;5011381;28;20117;-63
2022/05/09 09:59:23;;;;;;;8.77;2.30;;;;;;;;;;5009274;28;20052;-61
2022/05/09 10:02:05;;;;;;;10.77;2.80;;;;;;;;;;5013174;28;20057;-62
2022/05/09 10:04:31;;;;;;;9.07;2.60;;;;;;;;;;5012845;28;20157;-61
2022/05/09 10:06:59;;;;;;;12.27;4.35;;;;;;;;;;5007436;28;20500;-62
2022/05/09 10:09:25;;;;;;;10.95;3.28;;;;;;;;;;5010014;28;20396;-61
2022/05/09 10:11:51;;;;;;;9.52;2.80;;;;;;;;;;5011019;28;20037;-61
2022/05/09 10:14:43;;;;;;;12.38;2.67;;;;;;;;;;5001054;28;20359;-61
2022/05/09 10:17:20;;;;;;;13.38;3.03;;;;;;;;;;5003180;28;20072;-62
2022/05/09 10:19:47;;;;;;;9.00;3.13;;;;;;;;;;5008289;28;20096;-62
2022/05/09 10:25:09;;;;;;;6.57;2.60;;;;;;;;;;5007857;28;20049;-60
2022/05/09 10:27:36;;;;;;;6.82;2.42;;;;;;;;;;5010723;28;20149;-62
2022/05/09 10:30:24;;;;;;;8.25;3.17;;;;;;;;;;5009559;28;20160;-62
2022/05/09 10:33:07;;;;;;;10.65;2.88;;;;;;;;;;5008727;28;20049;-62
2022/05/09 10:35:52;;;;;;;11.20;2.88;;;;;;;;;;5009327;28;20057;-62
2022/05/09 10:38:38;;;;;;;11.85;2.85;;;;;;;;;;5012017;28;20064;-62
2022/05/09 10:41:10;;;;;;;9.60;2.88;;;;;;;;;;5009870;28;20370;-62
2022/05/09 10:43:39;;;;;;;6.80;2.28;;;;;;;;;;5010321;28;20053;-62
2022/05/09 10:46:11;;;;;;;11.63;2.00;;;;;;;;;;5010058;28;20084;-62
2022/05/09 10:48:41;;;;;;;9.13;2.90;;;;;;;;;;5009977;28;20081;-62
2022/05/09 10:51:19;;;;;;;11.15;2.53;;;;;;;;;;5008574;28;20069;-62
2022/05/09 10:53:45;;;;;;;7.78;2.15;;;;;;;;;;5005853;28;20073;-63
2022/05/09 10:56:15;;;;;;;10.02;2.33;;;;;;;;;;5009989;28;20053;-63
2022/05/09 10:58:52;;;;;;;11.05;2.50;;;;;;;;;;5008861;28;20054;-63
2022/05/09 11:01:24;;;;;;;5.78;1.92;;;;;;;;;;5007596;28;20040;-63
2022/05/09 11:03:50;;;;;;;;;;;;;;;;;;5011728;28;20120;-64
2022/05/09 11:06:35;;;;;;;12.30;2.25;;;;;;;;;;5006093;28;20020;-63
2022/05/09 11:09:20;;;;;;;6.38;2.30;;;;;;;;;;5008988;28;20046;-62
2022/05/09 11:12:04;;;;;;;9.77;2.15;;;;;;;;;;5008613;28;20049;-64
2022/05/09 11:14:34;;;;;;;7.90;2.58;;;;;;;;;;5010461;28;20053;-64
2022/05/09 11:16:59;;;;;;;8.68;2.58;;;;;;;;;;5011242;28;20405;-61
2022/05/09 11:19:55;;;;;;;9.13;2.63;;;;;;;;;;5011959;28;20129;-61
2022/05/09 11:22:26;;;;;;;9.13;3.00;;;;;;;;;;4999771;28;20050;-62
2022/05/09 11:25:01;;;;;;;10.05;2.42;;;;;;;;;;5012150;28;20354;-63
2022/05/09 11:27:45;;;;;;;8.38;2.50;;;;;;;;;;5011083;28;20046;-63
2022/05/09 11:30:16;;;;;;;8.32;2.40;;;;;;;;;;5011183;28;20048;-63
2022/05/09 11:32:43;;;;;;;7.75;2.42;;;;;;;;;;5011716;28;20042;-62
2022/05/09 11:35:12;;;;;;;10.50;3.13;;;;;;;;;;5011525;28;20153;-63
2022/05/09 11:37:38;;;;;;;8.98;2.90;;;;;;;;;;5010074;28;20041;-61
2022/05/09 11:40:04;;;;;;;6.72;2.78;;;;;;;;;;5006432;28;20062;-61
2022/05/09 11:45:36;;;;;;;5.43;2.40;;;;;;;;;;5009566;28;20073;-62
2022/05/09 11:48:23;;;;;;;6.32;2.30;;;;;;;;;;5012366;28;20045;-62
2022/05/09 11:50:58;;;;;;;9.55;2.75;;;;;;;;;;5003252;28;20547;-62
2022/05/09 11:53:25;;;;;;;9.80;3.20;;;;;;;;;;5008080;28;20049;-62
2022/05/09 11:55:52;;;;;;;10.20;3.03;;;;;;;;;;5009144;28;20084;-60
2022/05/09 11:58:19;;;;;;;9.20;2.85;;;;;;;;;;5012516;28;20045;-62
2022/05/09 12:00:47;;;;;;;7.32;2.53;;;;;;;;;;4992549;28;20049;-61
2022/05/09 12:03:15;;;;;;;8.35;2.80;;;;;;;;;;5013397;28;20033;-62
2022/05/09 12:05:50;;;;;;;8.15;2.65;;;;;;;;;;4995722;28;20136;-62
2022/05/09 12:08:18;;;;;;;9.05;2.45;;;;;;;;;;5014646;28;20775;-62
2022/05/09 12:10:45;;;;;;;5.47;2.75;;;;;;;;;;5015023;28;20137;-63
2022/05/09 12:13:16;;;;;;;7.13;2.75;;;;;;;;;;5014931;28;20042;-63
2022/05/09 12:15:45;;;;;;;7.72;2.75;;;;;;;;;;5014534;28;20034;-63
2022/05/09 12:18:18;;;;;;;9.70;2.88;;;;;;;;;;5012169;28;20165;-62
2022/05/09 12:20:47;;;;;;;6.28;2.20;;;;;;;;;;5014017;28;20088;-63
2022/05/09 12:23:33;;;;;;;7.15;2.42;;;;;;;;;;5014792;28;20042;-64
2022/05/09 12:26:03;;;;;;;7.20;2.53;;;;;;;;;;5015060;28;20038;-63
2022/05/09 12:28:39;;;;;;;10.27;2.78;;;;;;;;;;5006300;28;20050;-63
2022/05/09 12:31:24;;;;;;;6.07;2.70;;;;;;;;;;5010135;28;20061;-64
2022/05/09 12:33:51;;;;;;;6.82;2.80;;;;;;;;;;5007447;28;20037;-63
2022/05/09 12:36:22;;;;;;;7.47;2.90;;;;;;;;;;5012234;28;20045;-64
2022/05/09 12:38:50;;;;;;;8.90;2.20;;;;;;;;;;5013169;28;20120;-63
2022/05/09 12:41:17;;;;;;;8.77;2.72;;;;;;;;;;5013052;28;20099;-63
2022/05/09 12:43:45;;;;;;;8.77;2.50;;;;;;;;;;5013815;28;20073;-64
2022/05/09 12:46:18;;;;;;;7.28;1.98;;;;;;;;;;5013479;28;20042;-62
2022/05/09 12:48:44;;;;;;;7.78;2.38;;;;;;;;;;5012558;28;20046;-62
2022/05/09 12:51:12;;;;;;;10.85;2.60;;;;;;;;;;5013675;28;20041;-63
2022/05/09 12:53:39;;;;;;;5.85;2.33;;;;;;;;;;5013696;28;20404;-62
2022/05/09 12:56:13;;;;;;;6.75;2.53;;;;;;;;;;5011964;28;20046;-62
2022/05/09 12:58:41;;;;;;;8.93;2.33;;;;;;;;;;5013217;28;20050;-62
2022/05/09 13:01:07;;;;;;;5.65;2.25;;;;;;;;;;5013650;28;20038;-62
2022/05/09 13:03:41;;;;;;;8.07;1.90;;;;;;;;;;5012218;28;20033;-63
2022/05/09 13:06:15;;;;;;;13.23;2.55;;;;;;;;;;5012892;28;20431;-63
2022/05/09 13:08:42;;;;;;;8.93;2.38;;;;;;;;;;5013274;28;20045;-63
2022/05/09 13:11:16;;;;;;;7.85;2.30;;;;;;;;;;5013317;28;20038;-63
2022/05/09 13:13:47;;;;;;;9.80;2.00;;;;;;;;;;5013963;28;20045;-63
2022/05/09 13:16:23;;;;;;;6.32;2.42;;;;;;;;;;5003247;28;20087;-63
2022/05/09 13:18:49;;;;;;;7.22;2.33;;;;;;;;;;5028397;28;20074;-63
2022/05/09 13:21:21;;;;;;;7.10;2.28;;;;;;;;;;5012775;28;20144;-62
2022/05/09 13:23:48;;;;;;;4.55;1.83;;;;;;;;;;5013316;28;20073;-62
2022/05/09 13:26:19;;;;;;;5.38;1.95;;;;;;;;;;5012664;28;20053;-63
2022/05/09 13:28:51;;;;;;;4.80;2.10;;;;;;;;;;5011910;28;20046;-63
2022/05/09 13:31:17;;;;;;;;;;;;;;;;;;5014532;28;20037;-63
2022/05/09 13:33:43;;;;;;;;;;;;;;;;;;5012957;28;19917;-63
2022/05/09 13:36:08;;;;;;;;;;;;;;;;;;5013417;28;19924;-63
2022/05/09 13:38:34;;;;;;;;;;;;;;;;;;5012351;28;19928;-64
2022/05/09 13:41:00;;;;;;;;;;;;;;;;;;5012253;28;19948;-62
2022/05/09 13:43:26;;;;;;;;;;;;;;;;;;5013677;28;19948;-63
2022/05/09 13:45:52;;;;;;;;;;;;;;;;;;5010388;28;19917;-65
2022/05/09 13:48:20;;;;;;;;;;;;;;;;;;5011881;28;19928;-64
2022/05/09 13:50:46;;;;;;;;;;;;;;;;;;5012936;28;19921;-63
2022/05/09 13:53:12;;;;;;;;;;;;;;;;;;5012592;28;20044;-62
2022/05/09 13:55:38;;;;;;;;;;;;;;;;;;5012487;28;19918;-62
2022/05/09 13:58:04;;;;;;;;;;;;;;;;;;5013179;28;19922;-62
2022/05/09 14:00:30;;;;;;;;;;;;;;;;;;5010543;28;19921;-65
2022/05/09 14:02:57;;;;;;;;;;;;;;;;;;5011808;28;20016;-63
2022/05/09 14:05:22;;;;;;;;;;;;;;;;;;5012319;28;20364;-64
2022/05/09 14:07:49;;;;;;;;;;;;;;;;;;5012212;28;19917;-64
2022/05/09 14:10:14;;;;;;;;;;;;;;;;;;5011429;28;19918;-64
2022/05/09 14:12:40;;;;;;;;;;;;;;;;;;5012673;28;19924;-65
2022/05/09 14:15:07;;;;;;;;;;;;;;;;;;5008570;28;19917;-64
2022/05/09 14:17:33;;;;;;;;;;;;;;;;;;5010469;28;19917;-64
2022/05/09 14:19:59;;;;;;;;;;;;;;;;;;5011208;28;20395;-62
2022/05/09 14:22:25;;;;;;;;;;;;;;;;;;5008841;28;19917;-65
2022/05/09 14:30:20;;;;;;;;;;;;;;;;;;5011699;28;20298;-63
2022/05/09 14:32:46;;;;;;;;;;;;;;;;;;5009513;28;19921;-63
2022/05/09 14:35:12;;;;;;;;;;;;;;;;;;5010798;28;20024;-63
2022/05/09 14:37:38;;;;;;;;;;;;;;;;;;5010797;28;20007;-64
2022/05/09 14:40:05;;;;;;;;;;;;;;;;;;5011049;28;20136;-64
2022/05/09 14:42:33;;;;;;;;;;;;;;;;;;5012005;28;19921;-64
2022/05/09 14:44:58;;;;;;;;;;;;;;;;;;5011482;28;19917;-63
2022/05/09 14:47:25;;;;;;;;;;;;;;;;;;5011824;28;19967;-64
2022/05/09 14:49:51;;;;;;;;;;;;;;;;;;5011715;28;19928;-64
2022/05/09 14:52:17;;;;;;;;;;;;;;;;;;5012431;28;19924;-64
2022/05/09 14:54:43;;;;;;;;;;;;;;;;;;5011551;28;19917;-63
2022/05/09 14:57:27;;;;;;;;;;;;;;;;;;5011682;28;19921;-63
2022/05/09 14:59:53;;;;;;;;;;;;;;;;;;5011096;28;19972;-63
2022/05/09 15:02:19;;;;;;;;;;;;;;;;;;5010111;28;19928;-64
2022/05/09 15:04:45;;;;;;;;;;;;;;;;;;5010644;28;19921;-63
2022/05/09 15:07:11;;;;;;;;;;;;;;;;;;4974281;28;1079378;-64
2022/05/09 15:09:37;;;;;;;;;;;;;;;;;;5009144;28;19971;-63
2022/05/09 15:12:03;;;;;;;;;;;;;;;;;;5011787;28;19917;-63